createdAt,value
2023-02-03T00:00:00.406Z,0.63
2023-02-03T00:02:26.860Z,0.71
2023-02-03T00:04:53.304Z,0.73
2023-02-03T00:07:19.800Z,0.70
2023-02-03T00:09:46.362Z,0.70
2023-02-03T00:12:13.784Z,0.63
2023-02-03T00:14:40.242Z,0.62
2023-02-03T00:17:06.733Z,0.65
2023-02-03T00:19:33.243Z,0.69
2023-02-03T00:21:59.689Z,0.59
2023-02-03T00:24:26.234Z,0.64
2023-02-03T00:26:52.699Z,0.65
2023-02-03T00:29:21.567Z,0.58
2023-02-03T00:31:48.135Z,0.63
2023-02-03T00:34:14.724Z,0.64
2023-02-03T00:36:42.961Z,0.66
2023-02-03T00:39:09.510Z,0.71
2023-02-03T00:41:35.980Z,0.69
2023-02-03T00:44:02.455Z,0.70
2023-02-03T00:46:28.918Z,0.69
2023-02-03T00:48:55.345Z,0.74
2023-02-03T00:51:21.887Z,0.70
2023-02-03T00:53:48.608Z,0.70
2023-02-03T00:56:15.202Z,0.60
2023-02-03T00:58:41.847Z,0.57
2023-02-03T01:01:08.428Z,0.54
2023-02-03T01:03:34.993Z,0.42
2023-02-03T01:06:09.033Z,0.44
2023-02-03T01:08:35.471Z,0.39
2023-02-03T01:11:09.445Z,0.43
2023-02-03T01:13:36.499Z,0.44
2023-02-03T01:16:03.151Z,0.52
2023-02-03T01:18:29.713Z,0.54
2023-02-03T01:20:56.205Z,0.47
2023-02-03T01:23:22.788Z,0.42
2023-02-03T01:25:49.287Z,0.38
2023-02-03T01:28:15.760Z,0.38
2023-02-03T01:30:42.261Z,0.34
2023-02-03T01:33:08.735Z,0.38
2023-02-03T01:35:35.768Z,0.35
2023-02-03T01:38:02.187Z,0.40
2023-02-03T01:40:28.900Z,0.44
2023-02-03T01:42:55.474Z,0.48
2023-02-03T01:45:21.897Z,0.43
2023-02-03T01:47:48.282Z,0.42
2023-02-03T01:50:21.022Z,0.46
2023-02-03T01:52:49.849Z,0.45
2023-02-03T01:55:19.754Z,0.41
2023-02-03T01:57:48.902Z,0.50
2023-02-03T02:00:15.567Z,0.42
2023-02-03T02:02:44.026Z,0.30
2023-02-03T02:05:30.729Z,0.33
2023-02-03T02:07:58.621Z,0.34
2023-02-03T02:10:25.529Z,0.32
2023-02-03T02:12:54.448Z,0.34
2023-02-03T02:15:24.513Z,0.34
2023-02-03T02:17:53.927Z,0.29
2023-02-03T02:20:30.215Z,0.29
2023-02-03T02:23:15.185Z,0.28
2023-02-03T02:25:47.794Z,0.34
2023-02-03T02:28:20.407Z,0.45
2023-02-03T02:30:49.757Z,0.43
2023-02-03T02:33:28.220Z,0.42
2023-02-03T02:36:05.387Z,0.48
2023-02-03T02:38:34.662Z,0.45
2023-02-03T02:41:21.320Z,0.44
2023-02-03T02:43:52.965Z,0.45
2023-02-03T02:46:24.221Z,0.36
2023-02-03T02:49:04.793Z,0.37
2023-02-03T02:51:33.116Z,0.43
2023-02-03T02:54:02.610Z,0.32
2023-02-03T02:56:30.432Z,0.29
2023-02-03T02:58:58.063Z,0.29
2023-02-03T03:01:24.619Z,0.21
2023-02-03T03:03:51.310Z,0.19
2023-02-03T03:06:23.884Z,0.24
2023-02-03T03:08:57.120Z,0.29
2023-02-03T03:11:27.120Z,0.28
2023-02-03T03:13:54.422Z,0.32
2023-02-03T03:16:23.572Z,0.29
2023-02-03T03:18:53.726Z,0.34
2023-02-03T03:21:24.792Z,0.41
2023-02-03T03:23:52.311Z,0.48
2023-02-03T03:26:28.899Z,0.49
2023-02-03T03:29:00.670Z,0.54
2023-02-03T03:31:27.233Z,0.52
2023-02-03T03:33:53.818Z,0.47
2023-02-03T03:36:32.377Z,0.52
2023-02-03T03:39:03.990Z,0.59
2023-02-03T03:41:36.631Z,0.65
2023-02-03T03:44:04.965Z,0.66
2023-02-03T03:46:40.103Z,0.61
2023-02-03T03:49:08.617Z,0.57
2023-02-03T03:51:45.102Z,0.53
2023-02-03T03:54:13.163Z,0.48
2023-02-03T03:56:42.524Z,0.47
2023-02-03T03:59:11.175Z,0.43
2023-02-03T04:01:39.136Z,0.43
2023-02-03T04:04:07.248Z,0.36
2023-02-03T04:06:33.822Z,0.34
2023-02-03T04:09:02.198Z,0.30
2023-02-03T04:11:47.418Z,0.35
2023-02-03T04:14:13.845Z,0.42
2023-02-03T04:16:40.340Z,0.44
2023-02-03T04:19:08.411Z,0.43
2023-02-03T04:21:35.124Z,0.44
2023-02-03T04:24:01.571Z,0.44
2023-02-03T04:26:28.013Z,0.47
2023-02-03T04:28:54.474Z,0.44
2023-02-03T04:31:21.094Z,0.45
2023-02-03T04:33:47.581Z,0.46
2023-02-03T04:36:15.278Z,0.49
2023-02-03T04:38:41.717Z,0.43
2023-02-03T04:41:08.168Z,0.34
2023-02-03T04:43:34.591Z,0.30
2023-02-03T04:46:01.270Z,0.36
2023-02-03T04:48:28.165Z,0.37
2023-02-03T04:50:54.628Z,0.38
2023-02-03T04:53:21.238Z,0.39
2023-02-03T04:55:48.630Z,0.36
2023-02-03T04:58:15.090Z,0.37
2023-02-03T05:00:41.582Z,0.34
2023-02-03T05:03:08.120Z,0.32
2023-02-03T05:05:34.592Z,0.32
2023-02-03T05:08:01.083Z,0.32
2023-02-03T05:10:27.794Z,0.30
2023-02-03T05:12:54.399Z,0.31
2023-02-03T05:15:20.813Z,0.31
2023-02-03T05:17:47.268Z,0.33
2023-02-03T05:20:13.840Z,0.33
2023-02-03T05:22:40.338Z,0.34
2023-02-03T05:25:07.017Z,0.35
2023-02-03T05:27:33.509Z,0.34
2023-02-03T05:30:00.059Z,0.33
2023-02-03T05:32:27.131Z,0.29
2023-02-03T05:34:53.559Z,0.13
2023-02-03T05:37:20.000Z,0.04
2023-02-03T05:39:46.465Z,-0.02
2023-02-03T05:42:13.089Z,-0.02
2023-02-03T05:44:39.519Z,-0.05
2023-02-03T05:47:05.985Z,-0.11
2023-02-03T05:49:32.489Z,-0.23
2023-02-03T05:51:59.198Z,-0.29
2023-02-03T05:54:25.710Z,-0.31
2023-02-03T05:56:52.325Z,-0.33
2023-02-03T05:59:18.857Z,-0.34
2023-02-03T06:01:45.396Z,-0.38
2023-02-03T06:04:12.187Z,-0.38
2023-02-03T06:06:38.788Z,-0.41
2023-02-03T06:09:06.294Z,-0.42
2023-02-03T06:11:33.556Z,-0.39
2023-02-03T06:14:00.723Z,-0.37
2023-02-03T06:16:27.913Z,-0.34
2023-02-03T06:18:55.089Z,-0.35
2023-02-03T06:21:22.381Z,-0.37
2023-02-03T06:23:48.822Z,-0.39
2023-02-03T06:26:15.344Z,-0.40
2023-02-03T06:28:41.922Z,-0.46
2023-02-03T06:31:08.502Z,-0.45
2023-02-03T06:33:35.080Z,-0.41
2023-02-03T06:36:01.529Z,-0.50
2023-02-03T06:38:27.996Z,-0.53
2023-02-03T06:40:54.429Z,-0.55
2023-02-03T06:43:20.881Z,-0.52
2023-02-03T06:45:47.533Z,-0.53
2023-02-03T06:48:14.391Z,-0.63
2023-02-03T06:50:41.242Z,-0.74
2023-02-03T06:53:07.672Z,-0.78
2023-02-03T06:55:34.171Z,-0.77
2023-02-03T06:58:00.656Z,-0.74
2023-02-03T07:00:27.447Z,-0.74
2023-02-03T07:02:55.131Z,-0.78
2023-02-03T07:05:22.084Z,-0.79
2023-02-03T07:07:48.564Z,-0.72
2023-02-03T07:10:15.085Z,-0.70
2023-02-03T07:12:41.506Z,-0.66
2023-02-03T07:15:08.274Z,-0.63
2023-02-03T07:17:34.783Z,-0.58
2023-02-03T07:20:01.230Z,-0.58
2023-02-03T07:22:27.697Z,-0.57
2023-02-03T07:24:54.203Z,-0.57
2023-02-03T07:27:20.738Z,-0.58
2023-02-03T07:29:47.257Z,-0.58
2023-02-03T07:32:13.935Z,-0.57
2023-02-03T07:34:40.438Z,-0.55
2023-02-03T07:37:06.883Z,-0.49
2023-02-03T07:39:34.055Z,-0.42
2023-02-03T07:42:00.555Z,-0.35
2023-02-03T07:44:27.052Z,-0.29
2023-02-03T07:46:53.524Z,-0.30
2023-02-03T07:49:20.198Z,-0.25
2023-02-03T07:51:46.632Z,-0.23
2023-02-03T07:54:13.110Z,-0.20
2023-02-03T07:56:39.613Z,-0.19
2023-02-03T07:59:06.184Z,-0.19
2023-02-03T08:01:34.180Z,-0.15
2023-02-03T08:04:02.116Z,-0.12
2023-02-03T08:06:30.608Z,-0.08
2023-02-03T08:08:57.057Z,-0.10
2023-02-03T08:14:07.624Z,-0.10
2023-02-03T08:16:34.140Z,-0.12
2023-02-03T08:19:00.623Z,-0.09
2023-02-03T08:21:27.064Z,-0.10
2023-02-03T08:23:53.521Z,-0.13
2023-02-03T08:26:19.968Z,-0.09
2023-02-03T08:28:50.219Z,-0.07
2023-02-03T08:31:16.851Z,-0.04
2023-02-03T08:33:43.342Z,-0.02
2023-02-03T08:36:11.301Z,-0.02
2023-02-03T08:38:38.763Z,-0.07
2023-02-03T08:41:09.183Z,-0.17
2023-02-03T08:43:36.399Z,-0.20
2023-02-03T08:46:03.745Z,-0.19
2023-02-03T08:48:30.191Z,-0.25
2023-02-03T08:50:56.652Z,-0.27
2023-02-03T08:53:23.126Z,-0.27
2023-02-03T08:55:49.679Z,-0.28
2023-02-03T08:58:16.205Z,-0.33
2023-02-03T09:00:43.113Z,-0.32
2023-02-03T09:03:09.606Z,-0.31
2023-02-03T09:05:36.368Z,-0.31
2023-02-03T09:08:03.511Z,-0.37
2023-02-03T09:10:30.224Z,-0.42
2023-02-03T09:12:56.827Z,-0.42
2023-02-03T09:15:23.275Z,-0.41
2023-02-03T09:17:49.854Z,-0.35
2023-02-03T09:20:16.520Z,-0.27
2023-02-03T09:22:43.040Z,-0.26
2023-02-03T09:25:09.719Z,-0.24
2023-02-03T09:27:36.182Z,-0.23
2023-02-03T09:30:02.661Z,-0.16
2023-02-03T09:32:29.108Z,-0.13
2023-02-03T09:34:55.538Z,-0.17
2023-02-03T09:37:21.994Z,-0.26
2023-02-03T09:39:48.914Z,-0.24
2023-02-03T09:42:44.752Z,-0.26
2023-02-03T09:45:18.303Z,-0.25
2023-02-03T09:47:45.441Z,-0.24
2023-02-03T09:50:19.783Z,-0.18
2023-02-03T09:52:47.609Z,-0.14
2023-02-03T09:55:25.804Z,-0.20
2023-02-03T09:58:12.754Z,-0.21
2023-02-03T10:00:42.371Z,-0.23
2023-02-03T10:03:09.020Z,-0.17
2023-02-03T10:05:47.609Z,-0.14
2023-02-03T10:08:14.008Z,-0.08
2023-02-03T10:11:10.008Z,0.02
2023-02-03T10:13:48.570Z,-0.01
2023-02-03T10:16:50.306Z,0.02
2023-02-03T10:19:20.703Z,0.07
2023-02-03T10:21:49.999Z,0.11
2023-02-03T10:24:22.110Z,0.16
2023-02-03T10:26:49.198Z,0.22
2023-02-03T10:29:19.039Z,0.26
2023-02-03T10:31:47.545Z,0.31
2023-02-03T10:34:15.226Z,0.31
2023-02-03T10:36:41.638Z,0.26
2023-02-03T10:39:40.588Z,0.29
2023-02-03T10:42:07.292Z,0.33
2023-02-03T10:44:37.231Z,0.35
2023-02-03T10:47:15.346Z,0.34
2023-02-03T10:49:43.506Z,0.32
2023-02-03T10:52:24.001Z,0.39
2023-02-03T10:54:50.490Z,0.38
2023-02-03T10:57:17.004Z,0.42
2023-02-03T10:59:47.367Z,0.51
2023-02-03T11:02:22.722Z,0.50
2023-02-03T11:05:08.082Z,0.52
2023-02-03T11:07:34.512Z,0.41
2023-02-03T11:10:00.932Z,0.39
2023-02-03T11:12:27.399Z,0.44
2023-02-03T11:14:54.135Z,0.42
2023-02-03T11:17:22.917Z,0.49
2023-02-03T11:19:52.529Z,0.54
2023-02-03T11:22:30.242Z,0.51
2023-02-03T11:24:57.632Z,0.44
2023-02-03T11:27:25.466Z,0.48
2023-02-03T11:29:56.410Z,0.49
2023-02-03T11:32:29.142Z,0.51
2023-02-03T11:34:57.658Z,0.52
2023-02-03T11:37:27.166Z,0.52
2023-02-03T11:40:18.215Z,0.59
2023-02-03T11:42:45.947Z,0.69
2023-02-03T11:45:24.324Z,0.78
2023-02-03T11:47:56.507Z,0.84
2023-02-03T11:50:26.276Z,0.91
2023-02-03T11:52:52.907Z,0.98
2023-02-03T11:55:19.316Z,0.95
2023-02-03T11:58:04.741Z,0.98
2023-02-03T12:00:49.015Z,1.01
2023-02-03T12:03:15.602Z,0.99
2023-02-03T12:05:42.131Z,1.00
2023-02-03T12:08:31.662Z,0.99
2023-02-03T12:10:58.100Z,1.03
2023-02-03T12:13:32.304Z,1.07
2023-02-03T12:15:59.001Z,1.11
2023-02-03T12:18:44.266Z,1.12
2023-02-03T12:21:40.228Z,1.14
2023-02-03T12:24:29.914Z,1.09
2023-02-03T12:27:01.452Z,1.04
2023-02-03T12:29:32.483Z,1.00
2023-02-03T12:32:06.859Z,0.94
2023-02-03T12:34:52.181Z,0.85
2023-02-03T12:37:25.254Z,0.82
2023-02-03T12:40:14.368Z,0.74
2023-02-03T12:43:07.204Z,0.68
2023-02-03T12:45:37.809Z,0.68
2023-02-03T12:48:06.917Z,0.60
2023-02-03T12:50:46.292Z,0.63
2023-02-03T12:53:16.118Z,0.58
2023-02-03T12:55:47.908Z,0.45
2023-02-03T12:58:25.297Z,0.35
2023-02-03T13:00:51.802Z,0.38
2023-02-03T13:03:27.344Z,0.43
2023-02-03T13:06:02.853Z,0.50
2023-02-03T13:08:49.514Z,0.47
2023-02-03T13:11:19.078Z,0.51
2023-02-03T13:13:48.810Z,0.45
2023-02-03T13:16:17.126Z,0.47
2023-02-03T13:18:46.286Z,0.50
2023-02-03T13:21:12.785Z,0.54
2023-02-03T13:23:44.675Z,0.54
2023-02-03T13:26:18.556Z,0.55
2023-02-03T13:29:03.895Z,0.51
2023-02-03T13:31:42.746Z,0.46
2023-02-03T13:34:09.217Z,0.54
2023-02-03T13:36:38.780Z,0.56
2023-02-03T13:39:29.115Z,0.52
2023-02-03T13:41:57.328Z,0.51
2023-02-03T13:44:28.428Z,0.50
2023-02-03T13:46:56.584Z,0.53
2023-02-03T13:49:46.353Z,0.41
2023-02-03T13:52:27.314Z,0.43
2023-02-03T13:54:54.017Z,0.45
2023-02-03T13:57:22.385Z,0.39
2023-02-03T13:59:49.870Z,0.37
2023-02-03T14:02:19.401Z,0.28
2023-02-03T14:04:45.938Z,0.26
2023-02-03T14:07:31.791Z,0.22
2023-02-03T14:10:13.303Z,0.24
2023-02-03T14:12:52.105Z,0.29
2023-02-03T14:15:23.331Z,0.30
2023-02-03T14:17:52.792Z,0.31
2023-02-03T14:20:25.198Z,0.29
2023-02-03T14:22:54.616Z,0.33
2023-02-03T14:25:21.439Z,0.37
2023-02-03T14:27:48.722Z,0.41
2023-02-03T14:30:19.457Z,0.31
2023-02-03T14:32:49.379Z,0.34
2023-02-03T14:35:17.841Z,0.40
2023-02-03T14:37:52.506Z,0.39
2023-02-03T14:40:34.175Z,0.39
2023-02-03T14:43:10.504Z,0.31
2023-02-03T14:45:56.549Z,0.27
2023-02-03T14:48:41.524Z,0.23
2023-02-03T14:51:21.259Z,0.22
2023-02-03T14:53:53.784Z,0.24
2023-02-03T14:56:52.317Z,0.25
2023-02-03T14:59:22.131Z,0.19
2023-02-03T15:01:48.617Z,0.12
2023-02-03T15:04:15.022Z,0.12
2023-02-03T15:06:49.759Z,0.21
2023-02-03T15:09:19.294Z,0.20
2023-02-03T15:11:45.789Z,0.14
2023-02-03T15:14:19.631Z,0.14
2023-02-03T15:16:54.516Z,0.15
2023-02-03T15:19:22.989Z,0.11
2023-02-03T15:21:49.419Z,0.09
2023-02-03T15:24:19.152Z,0.10
2023-02-03T15:26:46.756Z,0.09
2023-02-03T15:29:24.854Z,0.10
2023-02-03T15:31:54.395Z,0.10
2023-02-03T15:34:20.951Z,0.18
2023-02-03T15:36:49.729Z,0.18
2023-02-03T15:39:34.966Z,0.17
2023-02-03T15:42:02.200Z,0.16
2023-02-03T15:44:32.854Z,0.21
2023-02-03T15:47:01.028Z,0.20
2023-02-03T15:49:32.809Z,0.23
2023-02-03T15:52:02.644Z,0.18
2023-02-03T15:54:41.076Z,0.18
2023-02-03T15:57:11.589Z,0.22
2023-02-03T15:59:40.490Z,0.26
2023-02-03T16:02:27.238Z,0.28
2023-02-03T16:04:54.326Z,0.23
2023-02-03T16:07:26.178Z,0.19
2023-02-03T16:09:56.436Z,0.15
2023-02-03T16:12:24.421Z,0.15
2023-02-03T16:14:51.570Z,0.19
2023-02-03T16:17:21.323Z,0.21
2023-02-03T16:19:51.303Z,0.22
2023-02-03T16:22:28.791Z,0.25
2023-02-03T16:24:56.231Z,0.22
2023-02-03T16:27:25.845Z,0.23
2023-02-03T16:30:11.063Z,0.24
2023-02-03T16:32:56.634Z,0.27
2023-02-03T16:35:41.793Z,0.24
2023-02-03T16:38:32.731Z,0.20
2023-02-03T16:41:18.026Z,0.24
2023-02-03T16:44:03.500Z,0.26
2023-02-03T16:46:48.289Z,0.20
2023-02-03T16:49:33.335Z,0.18
2023-02-03T16:51:59.881Z,0.06
2023-02-03T16:54:28.229Z,-0.01
2023-02-03T16:56:58.445Z,-0.05
2023-02-03T16:59:25.242Z,-0.22
2023-02-03T17:01:51.821Z,-0.24
2023-02-03T17:04:18.836Z,-0.29
2023-02-03T17:06:45.455Z,-0.25
2023-02-03T17:09:11.966Z,-0.23
2023-02-03T17:11:39.223Z,-0.25
2023-02-03T17:14:05.782Z,-0.25
2023-02-03T17:16:33.421Z,-0.28
2023-02-03T17:18:59.972Z,-0.27
2023-02-03T17:21:27.431Z,-0.31
2023-02-03T17:23:54.318Z,-0.42
2023-02-03T17:26:20.788Z,-0.41
2023-02-03T17:28:47.225Z,-0.42
2023-02-03T17:31:15.399Z,-0.50
2023-02-03T17:33:42.038Z,-0.41
2023-02-03T17:36:15.900Z,-0.37
2023-02-03T17:55:12.327Z,-0.26
2023-02-03T17:57:38.824Z,-0.33
2023-02-03T18:00:05.754Z,-0.29
2023-02-03T18:02:32.211Z,-0.21
2023-02-03T18:04:58.744Z,-0.17
2023-02-03T18:07:25.195Z,-0.12
2023-02-03T18:09:51.630Z,-0.09
2023-02-03T18:12:18.220Z,-0.07
2023-02-03T18:14:44.655Z,-0.01
2023-02-03T18:17:11.142Z,-0.06
2023-02-03T18:19:38.260Z,-0.04
2023-02-03T18:22:04.829Z,0.01
2023-02-03T18:24:32.088Z,0.08
2023-02-03T18:27:00.419Z,0.08
2023-02-03T18:29:27.512Z,0.15
2023-02-03T18:31:54.114Z,0.22
2023-02-03T18:34:20.581Z,0.27
2023-02-03T18:36:47.249Z,0.29
2023-02-03T18:39:15.183Z,0.33
2023-02-03T18:41:41.775Z,0.29
2023-02-03T18:44:08.277Z,0.26
2023-02-03T18:46:34.822Z,0.28
2023-02-03T18:49:01.412Z,0.28
2023-02-03T18:51:28.033Z,0.27
2023-02-03T18:53:58.339Z,0.30
2023-02-03T18:56:26.505Z,0.34
2023-02-03T18:58:52.954Z,0.37
2023-02-03T19:01:26.844Z,0.38
2023-02-03T19:03:57.451Z,0.43
2023-02-03T19:06:24.411Z,0.44
2023-02-03T19:08:51.287Z,0.46
2023-02-03T19:11:18.358Z,0.48
2023-02-03T19:13:44.936Z,0.48
2023-02-03T19:16:12.565Z,0.49
2023-02-03T19:18:39.047Z,0.48
2023-02-03T19:21:05.590Z,0.51
2023-02-03T19:23:32.033Z,0.53
2023-02-03T19:25:58.560Z,0.56
2023-02-03T19:28:31.071Z,0.58
2023-02-03T19:31:07.999Z,0.59
2023-02-03T19:33:35.174Z,0.60
2023-02-03T19:36:01.835Z,0.59
2023-02-03T19:38:28.263Z,0.58
2023-02-03T19:40:54.741Z,0.56
2023-02-03T19:43:21.221Z,0.58
2023-02-03T19:45:47.662Z,0.58
2023-02-03T19:48:14.104Z,0.61
2023-02-03T19:50:45.801Z,0.63
2023-02-03T19:53:16.071Z,0.63
2023-02-03T19:55:43.101Z,0.54
2023-02-03T19:58:09.624Z,0.55
2023-02-03T20:00:36.094Z,0.54
2023-02-03T20:03:03.016Z,0.57
2023-02-03T20:05:29.884Z,0.51
2023-02-03T20:07:56.265Z,0.48
2023-02-03T20:10:26.243Z,0.53
2023-02-03T20:12:53.267Z,0.59
2023-02-03T20:15:19.935Z,0.64
2023-02-03T20:17:46.409Z,0.67
2023-02-03T20:20:12.921Z,0.62
2023-02-03T20:22:39.499Z,0.63
2023-02-03T20:25:06.701Z,0.62
2023-02-03T20:27:33.131Z,0.64
2023-02-03T20:29:59.597Z,0.69
2023-02-03T20:32:26.043Z,0.66
2023-02-03T20:34:52.526Z,0.58
2023-02-03T20:37:18.975Z,0.61
2023-02-03T20:39:45.432Z,0.68
2023-02-03T20:42:19.528Z,0.72
2023-02-03T20:44:46.039Z,0.65
2023-02-03T20:47:13.442Z,0.60
2023-02-03T20:49:40.097Z,0.62
2023-02-03T20:52:10.298Z,0.67
2023-02-03T20:54:37.160Z,0.72
2023-02-03T20:57:06.085Z,0.76
2023-02-03T20:59:32.646Z,0.80
2023-02-03T21:02:07.851Z,0.86
2023-02-03T21:04:52.976Z,0.94
2023-02-03T21:07:19.436Z,0.87
2023-02-03T21:09:45.883Z,0.85
2023-02-03T21:12:13.165Z,0.87
2023-02-03T21:14:42.009Z,0.89
2023-02-03T21:17:19.381Z,0.86
2023-02-03T21:19:46.283Z,0.80
2023-02-03T21:22:23.716Z,0.85
2023-02-03T21:24:57.892Z,0.92
2023-02-03T21:27:24.393Z,0.94
2023-02-03T21:29:51.881Z,0.97
2023-02-03T21:32:18.299Z,1.01
2023-02-03T21:34:45.205Z,1.04
2023-02-03T21:37:31.881Z,1.02
2023-02-03T21:39:58.340Z,0.96
2023-02-03T21:42:42.942Z,0.91
2023-02-03T21:45:19.859Z,0.93
2023-02-03T21:47:47.412Z,0.98
2023-02-03T21:50:26.015Z,1.03
2023-02-03T21:52:52.768Z,1.10
2023-02-03T21:55:19.283Z,1.13
2023-02-03T21:57:49.492Z,1.18
2023-02-03T22:00:34.630Z,1.18
2023-02-03T22:03:01.910Z,1.21
2023-02-03T22:05:28.378Z,1.24
2023-02-03T22:07:55.175Z,1.30
2023-02-03T22:10:21.642Z,1.30
2023-02-03T22:12:48.077Z,1.29
2023-02-03T22:15:14.539Z,1.35
2023-02-03T22:17:41.076Z,1.41
2023-02-03T22:20:07.616Z,1.45
2023-02-03T22:22:34.116Z,1.51
2023-02-03T22:25:00.551Z,1.56
2023-02-03T22:27:27.043Z,1.63
2023-02-03T22:29:56.394Z,1.69
2023-02-03T22:32:22.895Z,1.76
2023-02-03T22:34:49.353Z,1.82
2023-02-03T22:37:15.775Z,1.86
2023-02-03T22:39:42.232Z,1.91
2023-02-03T22:42:08.663Z,1.96
2023-02-03T22:44:35.084Z,1.94
2023-02-03T22:47:01.606Z,2.00
2023-02-03T22:49:28.032Z,2.00
2023-02-03T22:51:54.454Z,2.05
2023-02-03T22:54:21.020Z,2.07
2023-02-03T22:56:47.448Z,2.11
2023-02-03T22:59:13.883Z,2.13
2023-02-03T23:01:40.318Z,2.13
2023-02-03T23:04:06.738Z,2.18
2023-02-03T23:06:33.332Z,2.18
2023-02-03T23:08:59.754Z,2.25
2023-02-03T23:11:26.195Z,2.28
2023-02-03T23:13:52.620Z,2.30
2023-02-03T23:16:19.143Z,2.35
2023-02-03T23:18:45.598Z,2.39
2023-02-03T23:21:12.097Z,2.42
2023-02-03T23:23:38.519Z,2.44
2023-02-03T23:26:05.039Z,2.46
2023-02-03T23:28:31.534Z,2.47
2023-02-03T23:30:58.166Z,2.48
2023-02-03T23:33:24.633Z,2.45
2023-02-03T23:35:51.814Z,2.49
2023-02-03T23:38:18.369Z,2.46
2023-02-03T23:40:45.257Z,2.40
2023-02-03T23:43:11.953Z,2.39
2023-02-03T23:45:38.525Z,2.35
2023-02-03T23:48:05.212Z,2.33
2023-02-03T23:50:32.009Z,2.32
2023-02-03T23:52:58.626Z,2.34
2023-02-03T23:55:25.328Z,2.35
2023-02-03T23:57:53.584Z,2.38
